sensor_id;sensor_type;location;lat;lon;timestamp;temperature;humidity
148;DHT22;142;50.652;12.216;2022-11-20T00:01:31;-4.60;58.30
148;DHT22;142;50.652;12.216;2022-11-20T00:03:59;-4.60;58.30
148;DHT22;142;50.652;12.216;2022-11-20T00:06:27;-4.60;58.20
148;DHT22;142;50.652;12.216;2022-11-20T00:08:55;-4.60;58.20
148;DHT22;142;50.652;12.216;2022-11-20T00:11:24;-4.60;58.20
148;DHT22;142;50.652;12.216;2022-11-20T00:13:53;-4.60;58.10
148;DHT22;142;50.652;12.216;2022-11-20T00:16:24;-4.70;58.20
148;DHT22;142;50.652;12.216;2022-11-20T00:18:51;-4.80;58.00
148;DHT22;142;50.652;12.216;2022-11-20T00:21:20;-4.80;58.00
148;DHT22;142;50.652;12.216;2022-11-20T00:23:48;-4.80;58.00
148;DHT22;142;50.652;12.216;2022-11-20T00:26:17;-4.80;58.20
148;DHT22;142;50.652;12.216;2022-11-20T00:28:51;-4.80;58.20
148;DHT22;142;50.652;12.216;2022-11-20T00:31:18;-4.80;58.30
148;DHT22;142;50.652;12.216;2022-11-20T00:33:47;-4.90;58.30
148;DHT22;142;50.652;12.216;2022-11-20T00:36:16;-4.90;58.20
148;DHT22;142;50.652;12.216;2022-11-20T00:38:44;-4.90;58.20
148;DHT22;142;50.652;12.216;2022-11-20T00:41:13;-4.90;58.30
148;DHT22;142;50.652;12.216;2022-11-20T00:43:40;-4.90;58.30
148;DHT22;142;50.652;12.216;2022-11-20T00:46:10;-4.90;58.30
148;DHT22;142;50.652;12.216;2022-11-20T00:48:38;-5.00;58.20
148;DHT22;142;50.652;12.216;2022-11-20T00:51:08;-5.00;58.20
148;DHT22;142;50.652;12.216;2022-11-20T00:53:35;-5.00;58.30
148;DHT22;142;50.652;12.216;2022-11-20T00:56:04;-5.00;58.40
148;DHT22;142;50.652;12.216;2022-11-20T00:58:33;-5.00;58.30
148;DHT22;142;50.652;12.216;2022-11-20T01:01:01;-5.00;58.30
148;DHT22;142;50.652;12.216;2022-11-20T01:03:31;-5.00;58.30
148;DHT22;142;50.652;12.216;2022-11-20T01:06:00;-5.00;58.30
148;DHT22;142;50.652;12.216;2022-11-20T01:08:31;-5.00;58.20
148;DHT22;142;50.652;12.216;2022-11-20T01:11:00;-5.00;58.30
148;DHT22;142;50.652;12.216;2022-11-20T01:13:27;-5.00;58.10
148;DHT22;142;50.652;12.216;2022-11-20T01:16:08;-5.00;58.10
148;DHT22;142;50.652;12.216;2022-11-20T01:18:36;-5.00;58.10
148;DHT22;142;50.652;12.216;2022-11-20T01:21:05;-5.00;58.10
148;DHT22;142;50.652;12.216;2022-11-20T01:23:35;-5.10;58.00
148;DHT22;142;50.652;12.216;2022-11-20T01:26:04;-5.00;57.90
148;DHT22;142;50.652;12.216;2022-11-20T01:28:32;-5.00;58.00
148;DHT22;142;50.652;12.216;2022-11-20T01:31:00;-5.00;58.00
148;DHT22;142;50.652;12.216;2022-11-20T01:33:29;-5.00;58.00
148;DHT22;142;50.652;12.216;2022-11-20T01:36:04;-5.10;57.80
148;DHT22;142;50.652;12.216;2022-11-20T01:38:32;-5.10;57.80
148;DHT22;142;50.652;12.216;2022-11-20T01:41:00;-5.10;57.90
148;DHT22;142;50.652;12.216;2022-11-20T01:43:27;-5.10;57.80
148;DHT22;142;50.652;12.216;2022-11-20T01:46:14;-5.10;57.70
148;DHT22;142;50.652;12.216;2022-11-20T01:48:47;-5.10;57.80
148;DHT22;142;50.652;12.216;2022-11-20T01:51:20;-5.20;57.60
148;DHT22;142;50.652;12.216;2022-11-20T01:53:50;-5.20;57.70
148;DHT22;142;50.652;12.216;2022-11-20T01:56:20;-5.20;57.80
148;DHT22;142;50.652;12.216;2022-11-20T01:58:50;-5.20;57.90
148;DHT22;142;50.652;12.216;2022-11-20T02:01:18;-5.20;57.90
148;DHT22;142;50.652;12.216;2022-11-20T02:03:46;-5.20;57.80
148;DHT22;142;50.652;12.216;2022-11-20T02:06:19;-5.20;58.00
148;DHT22;142;50.652;12.216;2022-11-20T02:08:50;-5.10;58.00
148;DHT22;142;50.652;12.216;2022-11-20T02:11:19;-5.20;57.90
148;DHT22;142;50.652;12.216;2022-11-20T02:13:47;-5.20;57.80
148;DHT22;142;50.652;12.216;2022-11-20T02:16:17;-5.20;57.80
148;DHT22;142;50.652;12.216;2022-11-20T02:18:46;-5.20;57.90
148;DHT22;142;50.652;12.216;2022-11-20T02:21:23;-5.20;57.90
148;DHT22;142;50.652;12.216;2022-11-20T02:24:01;-5.20;57.90
148;DHT22;142;50.652;12.216;2022-11-20T02:26:30;-5.20;57.90
148;DHT22;142;50.652;12.216;2022-11-20T02:28:58;-5.20;57.80
148;DHT22;142;50.652;12.216;2022-11-20T02:31:25;-5.20;57.80
148;DHT22;142;50.652;12.216;2022-11-20T02:33:56;-5.20;57.80
148;DHT22;142;50.652;12.216;2022-11-20T02:36:25;-5.20;57.90
148;DHT22;142;50.652;12.216;2022-11-20T02:38:53;-5.20;57.80
148;DHT22;142;50.652;12.216;2022-11-20T02:41:30;-5.30;57.60
148;DHT22;142;50.652;12.216;2022-11-20T02:43:57;-5.30;57.60
148;DHT22;142;50.652;12.216;2022-11-20T02:46:24;-5.30;57.60
148;DHT22;142;50.652;12.216;2022-11-20T02:48:51;-5.40;57.60
148;DHT22;142;50.652;12.216;2022-11-20T02:51:18;-5.40;57.60
148;DHT22;142;50.652;12.216;2022-11-20T02:53:45;-5.40;57.70
148;DHT22;142;50.652;12.216;2022-11-20T02:56:12;-5.30;57.80
148;DHT22;142;50.652;12.216;2022-11-20T02:58:41;-5.30;57.80
148;DHT22;142;50.652;12.216;2022-11-20T03:01:08;-5.20;57.80
148;DHT22;142;50.652;12.216;2022-11-20T03:03:35;-5.20;57.80
148;DHT22;142;50.652;12.216;2022-11-20T03:06:02;-5.20;57.80
148;DHT22;142;50.652;12.216;2022-11-20T03:08:29;-5.10;57.90
148;DHT22;142;50.652;12.216;2022-11-20T03:10:56;-5.10;57.90
148;DHT22;142;50.652;12.216;2022-11-20T03:13:25;-5.00;57.80
148;DHT22;142;50.652;12.216;2022-11-20T03:15:53;-5.00;57.70
148;DHT22;142;50.652;12.216;2022-11-20T03:18:20;-5.00;57.70
148;DHT22;142;50.652;12.216;2022-11-20T03:20:47;-4.90;57.80
148;DHT22;142;50.652;12.216;2022-11-20T03:23:14;-4.90;57.80
148;DHT22;142;50.652;12.216;2022-11-20T03:25:41;-4.90;57.80
148;DHT22;142;50.652;12.216;2022-11-20T03:28:09;-4.80;57.70
148;DHT22;142;50.652;12.216;2022-11-20T03:30:36;-4.80;57.70
148;DHT22;142;50.652;12.216;2022-11-20T03:33:04;-4.70;57.80
148;DHT22;142;50.652;12.216;2022-11-20T03:35:31;-4.70;57.70
148;DHT22;142;50.652;12.216;2022-11-20T03:37:58;-4.60;57.70
148;DHT22;142;50.652;12.216;2022-11-20T03:40:25;-4.60;57.70
148;DHT22;142;50.652;12.216;2022-11-20T03:42:52;-4.60;57.50
148;DHT22;142;50.652;12.216;2022-11-20T03:45:19;-4.60;57.50
148;DHT22;142;50.652;12.216;2022-11-20T03:47:46;-4.60;57.40
148;DHT22;142;50.652;12.216;2022-11-20T03:50:15;-4.60;57.30
148;DHT22;142;50.652;12.216;2022-11-20T03:52:42;-4.60;57.30
148;DHT22;142;50.652;12.216;2022-11-20T03:55:09;-4.60;57.30
148;DHT22;142;50.652;12.216;2022-11-20T03:57:36;-4.60;57.20
148;DHT22;142;50.652;12.216;2022-11-20T04:00:04;-4.60;57.30
148;DHT22;142;50.652;12.216;2022-11-20T04:02:31;-4.50;57.40
148;DHT22;142;50.652;12.216;2022-11-20T04:04:58;-4.50;57.40
148;DHT22;142;50.652;12.216;2022-11-20T04:07:27;-4.50;57.40
148;DHT22;142;50.652;12.216;2022-11-20T04:09:54;-4.50;57.40
148;DHT22;142;50.652;12.216;2022-11-20T04:12:21;-4.50;57.40
148;DHT22;142;50.652;12.216;2022-11-20T04:14:48;-4.50;57.40
148;DHT22;142;50.652;12.216;2022-11-20T04:17:15;-4.50;57.40
148;DHT22;142;50.652;12.216;2022-11-20T04:19:42;-4.50;57.40
148;DHT22;142;50.652;12.216;2022-11-20T04:22:09;-4.50;57.40
148;DHT22;142;50.652;12.216;2022-11-20T04:24:38;-4.50;57.40
148;DHT22;142;50.652;12.216;2022-11-20T04:27:05;-4.60;57.30
148;DHT22;142;50.652;12.216;2022-11-20T04:29:32;-4.70;57.30
148;DHT22;142;50.652;12.216;2022-11-20T04:31:59;-4.70;57.20
148;DHT22;142;50.652;12.216;2022-11-20T04:34:26;-4.70;57.30
148;DHT22;142;50.652;12.216;2022-11-20T04:36:53;-4.70;57.30
148;DHT22;142;50.652;12.216;2022-11-20T04:39:20;-4.80;57.30
148;DHT22;142;50.652;12.216;2022-11-20T04:41:48;-4.80;57.40
148;DHT22;142;50.652;12.216;2022-11-20T04:44:36;-4.80;57.40
148;DHT22;142;50.652;12.216;2022-11-20T04:47:03;-4.90;57.40
148;DHT22;142;50.652;12.216;2022-11-20T04:49:29;-4.90;57.50
148;DHT22;142;50.652;12.216;2022-11-20T04:51:57;-4.90;57.50
148;DHT22;142;50.652;12.216;2022-11-20T04:54:24;-4.80;57.60
148;DHT22;142;50.652;12.216;2022-11-20T04:56:53;-4.80;57.70
148;DHT22;142;50.652;12.216;2022-11-20T04:59:20;-4.80;57.70
148;DHT22;142;50.652;12.216;2022-11-20T05:01:47;-4.80;57.70
148;DHT22;142;50.652;12.216;2022-11-20T05:04:14;-4.90;57.70
148;DHT22;142;50.652;12.216;2022-11-20T05:06:41;-4.90;57.70
148;DHT22;142;50.652;12.216;2022-11-20T05:09:08;-4.90;57.80
148;DHT22;142;50.652;12.216;2022-11-20T05:11:35;-4.90;57.80
148;DHT22;142;50.652;12.216;2022-11-20T05:14:03;-4.90;57.80
148;DHT22;142;50.652;12.216;2022-11-20T05:16:30;-4.90;57.80
148;DHT22;142;50.652;12.216;2022-11-20T05:18:57;-4.90;57.90
148;DHT22;142;50.652;12.216;2022-11-20T05:21:24;-4.90;57.90
148;DHT22;142;50.652;12.216;2022-11-20T05:23:51;-4.90;57.90
148;DHT22;142;50.652;12.216;2022-11-20T05:26:20;-4.90;57.90
148;DHT22;142;50.652;12.216;2022-11-20T05:28:52;-4.90;57.80
148;DHT22;142;50.652;12.216;2022-11-20T05:31:23;-4.90;57.90
148;DHT22;142;50.652;12.216;2022-11-20T05:33:50;-4.90;57.90
148;DHT22;142;50.652;12.216;2022-11-20T05:36:18;-4.90;57.80
148;DHT22;142;50.652;12.216;2022-11-20T05:38:45;-5.00;57.80
148;DHT22;142;50.652;12.216;2022-11-20T05:41:13;-5.00;57.80
148;DHT22;142;50.652;12.216;2022-11-20T05:43:42;-5.00;57.90
148;DHT22;142;50.652;12.216;2022-11-20T05:46:12;-4.90;57.90
148;DHT22;142;50.652;12.216;2022-11-20T05:48:42;-4.90;58.00
148;DHT22;142;50.652;12.216;2022-11-20T05:51:12;-4.80;58.00
148;DHT22;142;50.652;12.216;2022-11-20T05:53:39;-4.70;58.20
148;DHT22;142;50.652;12.216;2022-11-20T05:56:08;-4.60;58.10
148;DHT22;142;50.652;12.216;2022-11-20T05:58:36;-4.60;58.00
148;DHT22;142;50.652;12.216;2022-11-20T06:01:06;-4.50;58.00
148;DHT22;142;50.652;12.216;2022-11-20T06:03:33;-4.40;58.00
148;DHT22;142;50.652;12.216;2022-11-20T06:06:02;-4.30;58.00
148;DHT22;142;50.652;12.216;2022-11-20T06:08:30;-4.30;58.00
148;DHT22;142;50.652;12.216;2022-11-20T06:10:57;-4.20;58.00
148;DHT22;142;50.652;12.216;2022-11-20T06:13:25;-4.10;57.90
148;DHT22;142;50.652;12.216;2022-11-20T06:15:52;-4.00;57.80
148;DHT22;142;50.652;12.216;2022-11-20T06:18:20;-4.00;57.70
148;DHT22;142;50.652;12.216;2022-11-20T06:20:47;-3.90;57.70
148;DHT22;142;50.652;12.216;2022-11-20T06:23:15;-3.80;57.70
148;DHT22;142;50.652;12.216;2022-11-20T06:25:42;-3.80;57.60
148;DHT22;142;50.652;12.216;2022-11-20T06:28:10;-3.80;57.40
148;DHT22;142;50.652;12.216;2022-11-20T06:30:36;-3.80;57.50
148;DHT22;142;50.652;12.216;2022-11-20T06:33:03;-3.70;57.60
148;DHT22;142;50.652;12.216;2022-11-20T06:35:30;-3.60;57.70
148;DHT22;142;50.652;12.216;2022-11-20T06:37:57;-3.60;57.80
148;DHT22;142;50.652;12.216;2022-11-20T06:40:26;-3.40;57.90
148;DHT22;142;50.652;12.216;2022-11-20T06:42:54;-3.30;57.90
148;DHT22;142;50.652;12.216;2022-11-20T06:45:21;-3.30;57.90
148;DHT22;142;50.652;12.216;2022-11-20T06:47:48;-3.20;57.90
148;DHT22;142;50.652;12.216;2022-11-20T06:50:15;-3.10;57.90
148;DHT22;142;50.652;12.216;2022-11-20T06:52:42;-3.10;58.00
148;DHT22;142;50.652;12.216;2022-11-20T06:55:09;-3.00;57.90
148;DHT22;142;50.652;12.216;2022-11-20T06:57:38;-2.90;58.00
148;DHT22;142;50.652;12.216;2022-11-20T07:00:06;-2.80;58.00
148;DHT22;142;50.652;12.216;2022-11-20T07:02:33;-2.70;58.00
148;DHT22;142;50.652;12.216;2022-11-20T07:05:00;-2.60;58.00
148;DHT22;142;50.652;12.216;2022-11-20T07:07:27;-2.60;57.90
148;DHT22;142;50.652;12.216;2022-11-20T07:09:54;-2.50;57.90
148;DHT22;142;50.652;12.216;2022-11-20T07:12:21;-2.40;57.90
148;DHT22;142;50.652;12.216;2022-11-20T07:14:50;-2.40;57.80
148;DHT22;142;50.652;12.216;2022-11-20T07:17:17;-2.40;57.60
148;DHT22;142;50.652;12.216;2022-11-20T07:19:44;-2.20;57.80
148;DHT22;142;50.652;12.216;2022-11-20T07:22:11;-2.10;57.90
148;DHT22;142;50.652;12.216;2022-11-20T07:24:38;-2.10;57.90
148;DHT22;142;50.652;12.216;2022-11-20T07:27:05;-2.00;57.80
148;DHT22;142;50.652;12.216;2022-11-20T07:29:32;-2.00;57.70
148;DHT22;142;50.652;12.216;2022-11-20T07:32:01;-1.90;57.80
148;DHT22;142;50.652;12.216;2022-11-20T07:34:28;-1.80;57.80
148;DHT22;142;50.652;12.216;2022-11-20T07:36:55;-1.80;57.60
148;DHT22;142;50.652;12.216;2022-11-20T07:39:22;-1.80;57.60
148;DHT22;142;50.652;12.216;2022-11-20T07:41:49;-1.80;57.60
148;DHT22;142;50.652;12.216;2022-11-20T07:44:16;-1.60;57.60
148;DHT22;142;50.652;12.216;2022-11-20T07:46:43;-1.50;57.70
148;DHT22;142;50.652;12.216;2022-11-20T07:49:12;-1.50;57.60
148;DHT22;142;50.652;12.216;2022-11-20T07:51:39;-1.40;57.60
148;DHT22;142;50.652;12.216;2022-11-20T07:54:06;-1.40;57.70
148;DHT22;142;50.652;12.216;2022-11-20T07:56:33;-1.30;57.80
148;DHT22;142;50.652;12.216;2022-11-20T07:59:00;-1.10;58.00
148;DHT22;142;50.652;12.216;2022-11-20T08:01:27;-1.10;57.70
148;DHT22;142;50.652;12.216;2022-11-20T08:03:54;-1.00;57.70
148;DHT22;142;50.652;12.216;2022-11-20T08:06:22;-0.90;57.70
148;DHT22;142;50.652;12.216;2022-11-20T08:08:50;-0.80;57.70
148;DHT22;142;50.652;12.216;2022-11-20T08:11:17;-0.80;57.50
148;DHT22;142;50.652;12.216;2022-11-20T08:14:01;-0.70;57.60
148;DHT22;142;50.652;12.216;2022-11-20T08:16:42;-0.70;57.40
148;DHT22;142;50.652;12.216;2022-11-20T08:19:09;-0.60;57.90
148;DHT22;142;50.652;12.216;2022-11-20T08:21:38;-0.50;58.00
148;DHT22;142;50.652;12.216;2022-11-20T08:24:06;-0.40;58.00
148;DHT22;142;50.652;12.216;2022-11-20T08:26:34;-0.30;58.30
148;DHT22;142;50.652;12.216;2022-11-20T08:29:03;-0.20;58.20
148;DHT22;142;50.652;12.216;2022-11-20T08:31:30;-0.10;58.20
148;DHT22;142;50.652;12.216;2022-11-20T08:33:57;-0.10;58.50
148;DHT22;142;50.652;12.216;2022-11-20T08:36:25;0.10;58.70
148;DHT22;142;50.652;12.216;2022-11-20T08:38:54;0.20;58.80
148;DHT22;142;50.652;12.216;2022-11-20T08:41:22;0.30;58.80
148;DHT22;142;50.652;12.216;2022-11-20T08:43:54;0.20;58.50
148;DHT22;142;50.652;12.216;2022-11-20T08:46:22;0.10;58.80
148;DHT22;142;50.652;12.216;2022-11-20T08:48:49;0.20;59.40
148;DHT22;142;50.652;12.216;2022-11-20T08:51:16;0.40;60.00
148;DHT22;142;50.652;12.216;2022-11-20T08:53:44;0.40;59.80
148;DHT22;142;50.652;12.216;2022-11-20T08:56:12;0.40;60.00
148;DHT22;142;50.652;12.216;2022-11-20T08:58:39;0.40;60.10
148;DHT22;142;50.652;12.216;2022-11-20T09:01:06;0.50;60.60
148;DHT22;142;50.652;12.216;2022-11-20T09:03:33;0.60;60.70
148;DHT22;142;50.652;12.216;2022-11-20T09:06:02;0.70;60.70
148;DHT22;142;50.652;12.216;2022-11-20T09:08:30;0.90;60.70
148;DHT22;142;50.652;12.216;2022-11-20T09:10:58;0.90;60.70
148;DHT22;142;50.652;12.216;2022-11-20T09:13:28;1.00;60.60
148;DHT22;142;50.652;12.216;2022-11-20T09:15:56;1.10;60.60
148;DHT22;142;50.652;12.216;2022-11-20T09:18:23;1.20;60.60
148;DHT22;142;50.652;12.216;2022-11-20T09:20:50;1.40;60.70
148;DHT22;142;50.652;12.216;2022-11-20T09:23:17;1.50;60.80
148;DHT22;142;50.652;12.216;2022-11-20T09:25:44;1.50;60.50
148;DHT22;142;50.652;12.216;2022-11-20T09:28:11;1.60;60.30
148;DHT22;142;50.652;12.216;2022-11-20T09:30:41;1.60;60.30
148;DHT22;142;50.652;12.216;2022-11-20T09:33:08;1.40;59.80
148;DHT22;142;50.652;12.216;2022-11-20T09:35:37;1.50;60.20
148;DHT22;142;50.652;12.216;2022-11-20T09:38:06;1.60;60.60
148;DHT22;142;50.652;12.216;2022-11-20T09:40:35;1.60;60.70
148;DHT22;142;50.652;12.216;2022-11-20T09:43:09;1.70;60.80
148;DHT22;142;50.652;12.216;2022-11-20T09:45:50;1.70;60.90
148;DHT22;142;50.652;12.216;2022-11-20T09:48:31;1.80;60.80
148;DHT22;142;50.652;12.216;2022-11-20T09:51:05;1.90;60.90
148;DHT22;142;50.652;12.216;2022-11-20T09:53:48;2.10;61.00
148;DHT22;142;50.652;12.216;2022-11-20T09:56:21;2.30;61.00
148;DHT22;142;50.652;12.216;2022-11-20T09:58:51;2.30;60.50
148;DHT22;142;50.652;12.216;2022-11-20T10:01:20;2.40;60.30
148;DHT22;142;50.652;12.216;2022-11-20T10:03:57;2.50;60.40
148;DHT22;142;50.652;12.216;2022-11-20T10:06:29;2.60;60.30
148;DHT22;142;50.652;12.216;2022-11-20T10:09:05;2.60;59.60
148;DHT22;142;50.652;12.216;2022-11-20T10:11:41;2.70;59.60
148;DHT22;142;50.652;12.216;2022-11-20T10:14:23;2.80;59.60
148;DHT22;142;50.652;12.216;2022-11-20T10:16:58;2.80;58.90
148;DHT22;142;50.652;12.216;2022-11-20T10:19:45;2.80;58.90
148;DHT22;142;50.652;12.216;2022-11-20T10:22:25;2.80;59.00
148;DHT22;142;50.652;12.216;2022-11-20T10:24:56;2.90;59.10
148;DHT22;142;50.652;12.216;2022-11-20T10:30:17;2.90;58.40
148;DHT22;142;50.652;12.216;2022-11-20T10:32:47;2.90;58.50
148;DHT22;142;50.652;12.216;2022-11-20T10:35:27;3.00;58.50
148;DHT22;142;50.652;12.216;2022-11-20T10:37:59;3.00;58.50
148;DHT22;142;50.652;12.216;2022-11-20T10:40:33;3.10;58.60
148;DHT22;142;50.652;12.216;2022-11-20T10:43:07;3.20;58.50
148;DHT22;142;50.652;12.216;2022-11-20T10:45:45;3.30;58.30
148;DHT22;142;50.652;12.216;2022-11-20T10:48:16;3.30;58.30
148;DHT22;142;50.652;12.216;2022-11-20T10:51:06;3.30;57.90
148;DHT22;142;50.652;12.216;2022-11-20T10:53:48;3.30;57.70
148;DHT22;142;50.652;12.216;2022-11-20T10:56:22;3.40;58.00
148;DHT22;142;50.652;12.216;2022-11-20T10:59:26;3.30;57.10
148;DHT22;142;50.652;12.216;2022-11-20T11:01:56;3.20;56.90
148;DHT22;142;50.652;12.216;2022-11-20T11:04:36;3.10;57.40
148;DHT22;142;50.652;12.216;2022-11-20T11:07:11;3.00;57.70
148;DHT22;142;50.652;12.216;2022-11-20T11:09:44;2.90;57.50
148;DHT22;142;50.652;12.216;2022-11-20T11:12:13;2.80;58.10
148;DHT22;142;50.652;12.216;2022-11-20T11:14:45;2.80;58.60
148;DHT22;142;50.652;12.216;2022-11-20T11:17:25;2.70;58.70
148;DHT22;142;50.652;12.216;2022-11-20T11:20:02;2.60;59.00
148;DHT22;142;50.652;12.216;2022-11-20T11:22:32;2.50;59.60
148;DHT22;142;50.652;12.216;2022-11-20T11:24:59;2.50;60.00
148;DHT22;142;50.652;12.216;2022-11-20T11:27:27;2.40;60.50
148;DHT22;142;50.652;12.216;2022-11-20T11:30:12;2.30;60.70
148;DHT22;142;50.652;12.216;2022-11-20T11:32:39;2.20;61.20
148;DHT22;142;50.652;12.216;2022-11-20T11:35:22;2.20;61.40
148;DHT22;142;50.652;12.216;2022-11-20T11:37:52;2.20;61.80
148;DHT22;142;50.652;12.216;2022-11-20T11:40:21;2.20;61.80
148;DHT22;142;50.652;12.216;2022-11-20T11:42:54;2.20;61.80
148;DHT22;142;50.652;12.216;2022-11-20T11:45:21;2.10;61.70
148;DHT22;142;50.652;12.216;2022-11-20T11:47:48;2.20;62.10
148;DHT22;142;50.652;12.216;2022-11-20T11:50:20;2.20;62.30
148;DHT22;142;50.652;12.216;2022-11-20T11:52:56;2.20;62.30
148;DHT22;142;50.652;12.216;2022-11-20T11:55:29;2.20;62.30
148;DHT22;142;50.652;12.216;2022-11-20T11:58:06;2.30;62.30
148;DHT22;142;50.652;12.216;2022-11-20T12:00:39;2.20;62.10
148;DHT22;142;50.652;12.216;2022-11-20T12:03:13;2.20;62.10
148;DHT22;142;50.652;12.216;2022-11-20T12:05:44;2.20;62.30
148;DHT22;142;50.652;12.216;2022-11-20T12:08:20;2.30;62.50
148;DHT22;142;50.652;12.216;2022-11-20T12:10:57;2.30;62.50
148;DHT22;142;50.652;12.216;2022-11-20T12:13:36;2.40;62.50
148;DHT22;142;50.652;12.216;2022-11-20T12:16:12;2.40;62.30
148;DHT22;142;50.652;12.216;2022-11-20T12:18:42;2.40;62.20
148;DHT22;142;50.652;12.216;2022-11-20T12:21:18;2.30;61.50
148;DHT22;142;50.652;12.216;2022-11-20T12:24:25;2.30;61.70
148;DHT22;142;50.652;12.216;2022-11-20T12:27:06;2.40;62.00
148;DHT22;142;50.652;12.216;2022-11-20T12:29:47;2.50;62.00
148;DHT22;142;50.652;12.216;2022-11-20T12:32:36;2.50;61.70
148;DHT22;142;50.652;12.216;2022-11-20T12:35:22;2.50;61.40
148;DHT22;142;50.652;12.216;2022-11-20T12:38:06;2.50;61.40
148;DHT22;142;50.652;12.216;2022-11-20T12:40:45;2.40;61.30
148;DHT22;142;50.652;12.216;2022-11-20T12:43:19;2.40;61.60
148;DHT22;142;50.652;12.216;2022-11-20T12:46:29;2.50;62.10
148;DHT22;142;50.652;12.216;2022-11-20T12:49:17;2.40;61.80
148;DHT22;142;50.652;12.216;2022-11-20T12:52:15;2.40;61.70
148;DHT22;142;50.652;12.216;2022-11-20T12:55:00;2.40;61.80
148;DHT22;142;50.652;12.216;2022-11-20T12:57:39;2.50;61.90
148;DHT22;142;50.652;12.216;2022-11-20T13:00:11;2.50;61.60
148;DHT22;142;50.652;12.216;2022-11-20T13:05:53;2.50;61.70
148;DHT22;142;50.652;12.216;2022-11-20T13:08:25;2.60;61.90
148;DHT22;142;50.652;12.216;2022-11-20T13:10:58;2.70;62.00
148;DHT22;142;50.652;12.216;2022-11-20T13:13:39;2.70;61.80
148;DHT22;142;50.652;12.216;2022-11-20T13:16:15;2.70;61.60
148;DHT22;142;50.652;12.216;2022-11-20T13:18:43;2.70;61.50
148;DHT22;142;50.652;12.216;2022-11-20T13:21:18;2.70;61.50
148;DHT22;142;50.652;12.216;2022-11-20T13:23:46;2.70;61.40
148;DHT22;142;50.652;12.216;2022-11-20T13:26:19;2.70;61.10
148;DHT22;142;50.652;12.216;2022-11-20T13:28:59;2.70;61.20
148;DHT22;142;50.652;12.216;2022-11-20T13:31:32;2.70;61.10
148;DHT22;142;50.652;12.216;2022-11-20T13:34:02;2.70;61.20
148;DHT22;142;50.652;12.216;2022-11-20T13:36:30;2.70;61.40
148;DHT22;142;50.652;12.216;2022-11-20T13:38:59;2.80;61.50
148;DHT22;142;50.652;12.216;2022-11-20T13:41:27;2.80;61.60
148;DHT22;142;50.652;12.216;2022-11-20T13:44:04;2.90;61.30
148;DHT22;142;50.652;12.216;2022-11-20T13:46:37;2.80;61.00
148;DHT22;142;50.652;12.216;2022-11-20T13:49:09;2.90;61.10
148;DHT22;142;50.652;12.216;2022-11-20T13:51:42;2.90;61.30
148;DHT22;142;50.652;12.216;2022-11-20T13:57:34;3.00;61.10
148;DHT22;142;50.652;12.216;2022-11-20T14:00:11;3.00;61.00
148;DHT22;142;50.652;12.216;2022-11-20T14:02:40;3.00;61.10
148;DHT22;142;50.652;12.216;2022-11-20T14:05:17;3.10;61.10
148;DHT22;142;50.652;12.216;2022-11-20T14:07:45;3.10;61.10
148;DHT22;142;50.652;12.216;2022-11-20T14:10:21;3.10;61.00
148;DHT22;142;50.652;12.216;2022-11-20T14:12:49;3.10;60.90
148;DHT22;142;50.652;12.216;2022-11-20T14:15:27;3.10;61.00
148;DHT22;142;50.652;12.216;2022-11-20T14:17:54;3.10;60.90
148;DHT22;142;50.652;12.216;2022-11-20T14:20:24;3.20;60.90
148;DHT22;142;50.652;12.216;2022-11-20T14:22:52;3.20;61.00
148;DHT22;142;50.652;12.216;2022-11-20T14:25:22;3.20;60.60
148;DHT22;142;50.652;12.216;2022-11-20T14:27:55;3.10;60.50
148;DHT22;142;50.652;12.216;2022-11-20T14:30:26;3.10;60.70
148;DHT22;142;50.652;12.216;2022-11-20T14:32:55;3.10;61.20
148;DHT22;142;50.652;12.216;2022-11-20T14:35:25;3.20;61.40
148;DHT22;142;50.652;12.216;2022-11-20T14:37:55;3.30;61.50
148;DHT22;142;50.652;12.216;2022-11-20T14:40:28;3.20;61.00
148;DHT22;142;50.652;12.216;2022-11-20T14:42:56;3.20;61.00
148;DHT22;142;50.652;12.216;2022-11-20T14:45:25;3.20;60.90
148;DHT22;142;50.652;12.216;2022-11-20T14:47:57;3.10;60.60
148;DHT22;142;50.652;12.216;2022-11-20T14:50:25;3.10;60.80
148;DHT22;142;50.652;12.216;2022-11-20T14:52:54;3.00;60.60
148;DHT22;142;50.652;12.216;2022-11-20T14:55:26;3.00;60.80
148;DHT22;142;50.652;12.216;2022-11-20T14:57:58;2.90;61.00
148;DHT22;142;50.652;12.216;2022-11-20T15:00:27;2.90;61.10
148;DHT22;142;50.652;12.216;2022-11-20T15:02:56;2.90;61.30
148;DHT22;142;50.652;12.216;2022-11-20T15:05:25;2.90;61.40
148;DHT22;142;50.652;12.216;2022-11-20T15:08:05;2.90;61.60
148;DHT22;142;50.652;12.216;2022-11-20T15:10:33;2.80;61.40
148;DHT22;142;50.652;12.216;2022-11-20T15:13:02;2.80;61.40
148;DHT22;142;50.652;12.216;2022-11-20T15:15:36;2.70;61.50
148;DHT22;142;50.652;12.216;2022-11-20T15:18:11;2.70;61.70
148;DHT22;142;50.652;12.216;2022-11-20T15:20:41;2.70;61.90
148;DHT22;142;50.652;12.216;2022-11-20T15:23:11;2.70;61.70
148;DHT22;142;50.652;12.216;2022-11-20T15:25:38;2.60;61.50
148;DHT22;142;50.652;12.216;2022-11-20T15:28:15;2.60;61.90
148;DHT22;142;50.652;12.216;2022-11-20T15:30:44;2.50;61.90
148;DHT22;142;50.652;12.216;2022-11-20T15:33:12;2.50;62.10
148;DHT22;142;50.652;12.216;2022-11-20T15:35:41;2.60;62.20
148;DHT22;142;50.652;12.216;2022-11-20T15:38:08;2.60;62.20
148;DHT22;142;50.652;12.216;2022-11-20T15:40:35;2.50;62.10
148;DHT22;142;50.652;12.216;2022-11-20T15:43:03;2.50;62.10
148;DHT22;142;50.652;12.216;2022-11-20T15:45:33;2.60;62.30
148;DHT22;142;50.652;12.216;2022-11-20T15:48:02;2.50;61.90
148;DHT22;142;50.652;12.216;2022-11-20T15:50:38;2.50;62.00
148;DHT22;142;50.652;12.216;2022-11-20T15:53:05;2.50;61.80
148;DHT22;142;50.652;12.216;2022-11-20T15:55:33;2.40;61.70
148;DHT22;142;50.652;12.216;2022-11-20T15:58:01;2.40;61.70
148;DHT22;142;50.652;12.216;2022-11-20T16:00:28;2.30;61.60
148;DHT22;142;50.652;12.216;2022-11-20T16:02:56;2.20;61.80
148;DHT22;142;50.652;12.216;2022-11-20T16:05:28;2.20;61.90
148;DHT22;142;50.652;12.216;2022-11-20T16:07:56;2.30;62.40
148;DHT22;142;50.652;12.216;2022-11-20T16:10:23;2.30;62.50
148;DHT22;142;50.652;12.216;2022-11-20T16:12:50;2.20;62.30
148;DHT22;142;50.652;12.216;2022-11-20T16:15:34;2.20;62.30
148;DHT22;142;50.652;12.216;2022-11-20T16:18:15;2.20;62.50
148;DHT22;142;50.652;12.216;2022-11-20T16:20:45;2.20;62.60
148;DHT22;142;50.652;12.216;2022-11-20T16:23:13;2.20;62.40
148;DHT22;142;50.652;12.216;2022-11-20T16:25:41;2.20;62.30
148;DHT22;142;50.652;12.216;2022-11-20T16:28:09;2.20;62.40
148;DHT22;142;50.652;12.216;2022-11-20T16:30:36;2.10;62.30
148;DHT22;142;50.652;12.216;2022-11-20T16:33:04;2.00;62.10
148;DHT22;142;50.652;12.216;2022-11-20T16:35:31;1.90;61.90
148;DHT22;142;50.652;12.216;2022-11-20T16:37:59;1.80;61.80
148;DHT22;142;50.652;12.216;2022-11-20T16:40:26;1.80;61.90
148;DHT22;142;50.652;12.216;2022-11-20T16:42:53;1.70;62.10
148;DHT22;142;50.652;12.216;2022-11-20T16:45:21;1.70;62.20
148;DHT22;142;50.652;12.216;2022-11-20T16:47:48;1.60;62.10
148;DHT22;142;50.652;12.216;2022-11-20T16:50:15;1.50;62.10
148;DHT22;142;50.652;12.216;2022-11-20T16:52:42;1.40;62.00
148;DHT22;142;50.652;12.216;2022-11-20T16:55:11;1.30;61.90
148;DHT22;142;50.652;12.216;2022-11-20T16:57:38;1.30;62.10